sensor_id;sensor_type;location;lat;lon;timestamp;P1;durP1;ratioP1;P2;durP2;ratioP2
9228;SDS011;4649;42.644;23.284;2023-05-29T00:05:42;3.60;;;3.37;;
9228;SDS011;4649;42.644;23.284;2023-05-29T00:12:04;3.47;;;3.17;;
9228;SDS011;4649;42.644;23.284;2023-05-29T00:24:59;4.30;;;3.33;;
9228;SDS011;4649;42.644;23.284;2023-05-29T00:27:47;4.23;;;3.33;;
9228;SDS011;4649;42.644;23.284;2023-05-29T00:30:36;3.43;;;3.27;;
9228;SDS011;4649;42.644;23.284;2023-05-29T00:33:27;3.80;;;3.60;;
9228;SDS011;4649;42.644;23.284;2023-05-29T00:36:22;3.70;;;3.40;;
9228;SDS011;4649;42.644;23.284;2023-05-29T00:39:11;3.70;;;3.53;;
9228;SDS011;4649;42.644;23.284;2023-05-29T00:51:06;3.70;;;3.50;;
9228;SDS011;4649;42.644;23.284;2023-05-29T00:53:40;4.07;;;3.80;;
9228;SDS011;4649;42.644;23.284;2023-05-29T00:56:25;3.47;;;3.17;;
9228;SDS011;4649;42.644;23.284;2023-05-29T00:59:08;4.67;;;4.33;;
9228;SDS011;4649;42.644;23.284;2023-05-29T01:01:50;4.40;;;4.00;;
9228;SDS011;4649;42.644;23.284;2023-05-29T01:04:26;4.63;;;4.13;;
9228;SDS011;4649;42.644;23.284;2023-05-29T01:06:59;7.37;;;4.20;;
9228;SDS011;4649;42.644;23.284;2023-05-29T01:09:35;4.03;;;3.77;;
9228;SDS011;4649;42.644;23.284;2023-05-29T01:12:16;5.37;;;4.17;;
9228;SDS011;4649;42.644;23.284;2023-05-29T01:15:37;4.43;;;4.23;;
9228;SDS011;4649;42.644;23.284;2023-05-29T01:59:57;4.70;;;4.40;;
9228;SDS011;4649;42.644;23.284;2023-05-29T02:03:05;5.23;;;4.90;;
9228;SDS011;4649;42.644;23.284;2023-05-29T02:05:47;5.77;;;5.20;;
9228;SDS011;4649;42.644;23.284;2023-05-29T02:08:18;4.50;;;4.20;;
9228;SDS011;4649;42.644;23.284;2023-05-29T02:10:57;5.23;;;4.93;;
9228;SDS011;4649;42.644;23.284;2023-05-29T02:13:39;4.80;;;4.50;;
9228;SDS011;4649;42.644;23.284;2023-05-29T02:16:25;5.73;;;4.80;;
9228;SDS011;4649;42.644;23.284;2023-05-29T02:21:20;5.20;;;4.80;;
9228;SDS011;4649;42.644;23.284;2023-05-29T02:23:50;4.27;;;4.07;;
9228;SDS011;4649;42.644;23.284;2023-05-29T02:26:28;7.33;;;4.03;;
9228;SDS011;4649;42.644;23.284;2023-05-29T02:29:02;4.90;;;4.50;;
9228;SDS011;4649;42.644;23.284;2023-05-29T02:34:34;6.40;;;4.47;;
9228;SDS011;4649;42.644;23.284;2023-05-29T02:37:07;4.27;;;4.03;;
9228;SDS011;4649;42.644;23.284;2023-05-29T02:39:42;3.47;;;3.27;;
9228;SDS011;4649;42.644;23.284;2023-05-29T02:42:28;7.00;;;4.00;;
9228;SDS011;4649;42.644;23.284;2023-05-29T02:45:41;4.30;;;3.90;;
9228;SDS011;4649;42.644;23.284;2023-05-29T02:48:34;4.03;;;3.73;;
9228;SDS011;4649;42.644;23.284;2023-05-29T02:51:16;3.63;;;3.43;;
9228;SDS011;4649;42.644;23.284;2023-05-29T03:02:26;3.47;;;3.27;;
9228;SDS011;4649;42.644;23.284;2023-05-29T03:10:29;7.40;;;3.83;;
9228;SDS011;4649;42.644;23.284;2023-05-29T03:13:12;6.07;;;3.87;;
9228;SDS011;4649;42.644;23.284;2023-05-29T03:19:07;4.63;;;4.23;;
9228;SDS011;4649;42.644;23.284;2023-05-29T03:21:52;3.50;;;3.30;;
9228;SDS011;4649;42.644;23.284;2023-05-29T03:27:47;4.07;;;3.80;;
9228;SDS011;4649;42.644;23.284;2023-05-29T03:36:43;3.87;;;3.60;;
9228;SDS011;4649;42.644;23.284;2023-05-29T03:39:26;4.00;;;3.43;;
9228;SDS011;4649;42.644;23.284;2023-05-29T03:41:54;4.00;;;3.70;;
9228;SDS011;4649;42.644;23.284;2023-05-29T03:44:27;4.30;;;3.90;;
9228;SDS011;4649;42.644;23.284;2023-05-29T03:47:07;7.47;;;3.53;;
9228;SDS011;4649;42.644;23.284;2023-05-29T03:49:37;4.73;;;4.30;;
9228;SDS011;4649;42.644;23.284;2023-05-29T03:52:18;5.63;;;3.30;;
9228;SDS011;4649;42.644;23.284;2023-05-29T03:55:20;4.90;;;3.50;;
9228;SDS011;4649;42.644;23.284;2023-05-29T03:57:49;7.87;;;3.87;;
9228;SDS011;4649;42.644;23.284;2023-05-29T04:00:41;6.00;;;3.73;;
9228;SDS011;4649;42.644;23.284;2023-05-29T04:03:08;4.07;;;3.73;;
9228;SDS011;4649;42.644;23.284;2023-05-29T04:05:36;3.73;;;3.43;;
9228;SDS011;4649;42.644;23.284;2023-05-29T04:10:56;3.80;;;3.50;;
9228;SDS011;4649;42.644;23.284;2023-05-29T04:13:40;3.60;;;3.30;;
9228;SDS011;4649;42.644;23.284;2023-05-29T04:16:50;3.93;;;3.63;;
9228;SDS011;4649;42.644;23.284;2023-05-29T04:19:24;3.80;;;3.60;;
9228;SDS011;4649;42.644;23.284;2023-05-29T04:22:04;3.87;;;3.57;;
9228;SDS011;4649;42.644;23.284;2023-05-29T04:24:34;4.17;;;3.77;;
9228;SDS011;4649;42.644;23.284;2023-05-29T04:27:16;3.70;;;3.50;;
9228;SDS011;4649;42.644;23.284;2023-05-29T04:39:12;2.80;;;2.67;;
9228;SDS011;4649;42.644;23.284;2023-05-29T04:41:39;3.83;;;2.87;;
9228;SDS011;4649;42.644;23.284;2023-05-29T05:39:16;4.90;;;4.60;;
9228;SDS011;4649;42.644;23.284;2023-05-29T05:42:03;5.10;;;4.60;;
9228;SDS011;4649;42.644;23.284;2023-05-29T05:44:56;4.87;;;4.57;;
9228;SDS011;4649;42.644;23.284;2023-05-29T05:48:16;5.10;;;4.00;;
9228;SDS011;4649;42.644;23.284;2023-05-29T06:07:20;5.00;;;4.60;;
9228;SDS011;4649;42.644;23.284;2023-05-29T06:16:40;5.33;;;3.50;;
9228;SDS011;4649;42.644;23.284;2023-05-29T06:19:27;4.47;;;3.40;;
9228;SDS011;4649;42.644;23.284;2023-05-29T06:22:10;3.57;;;2.90;;
9228;SDS011;4649;42.644;23.284;2023-05-29T06:25:07;3.40;;;3.10;;
9228;SDS011;4649;42.644;23.284;2023-05-29T06:27:44;4.70;;;3.33;;
9228;SDS011;4649;42.644;23.284;2023-05-29T06:30:27;5.47;;;3.80;;
9228;SDS011;4649;42.644;23.284;2023-05-29T06:33:03;4.63;;;3.80;;
9228;SDS011;4649;42.644;23.284;2023-05-29T06:35:46;5.40;;;4.27;;
9228;SDS011;4649;42.644;23.284;2023-05-29T06:38:22;4.87;;;4.30;;
9228;SDS011;4649;42.644;23.284;2023-05-29T06:43:56;15.53;;;4.17;;
9228;SDS011;4649;42.644;23.284;2023-05-29T06:53:51;4.77;;;3.43;;
9228;SDS011;4649;42.644;23.284;2023-05-29T07:19:17;3.50;;;3.30;;
9228;SDS011;4649;42.644;23.284;2023-05-29T07:21:58;3.33;;;3.03;;
9228;SDS011;4649;42.644;23.284;2023-05-29T07:24:41;3.00;;;2.80;;
9228;SDS011;4649;42.644;23.284;2023-05-29T07:27:40;3.27;;;2.97;;
9228;SDS011;4649;42.644;23.284;2023-05-29T07:30:13;2.80;;;2.60;;
9228;SDS011;4649;42.644;23.284;2023-05-29T07:33:04;3.20;;;3.00;;
9228;SDS011;4649;42.644;23.284;2023-05-29T07:36:05;7.33;;;3.40;;
9228;SDS011;4649;42.644;23.284;2023-05-29T07:38:51;3.47;;;3.17;;
9228;SDS011;4649;42.644;23.284;2023-05-29T07:41:45;2.57;;;2.40;;
9228;SDS011;4649;42.644;23.284;2023-05-29T07:44:37;6.60;;;2.80;;
9228;SDS011;4649;42.644;23.284;2023-05-29T07:47:32;8.17;;;2.43;;
9228;SDS011;4649;42.644;23.284;2023-05-29T07:50:19;2.37;;;2.27;;
9228;SDS011;4649;42.644;23.284;2023-05-29T07:53:06;2.93;;;2.57;;
9228;SDS011;4649;42.644;23.284;2023-05-29T07:55:45;2.77;;;2.67;;
9228;SDS011;4649;42.644;23.284;2023-05-29T07:58:28;3.33;;;3.07;;
9228;SDS011;4649;42.644;23.284;2023-05-29T08:01:10;3.40;;;3.00;;
9228;SDS011;4649;42.644;23.284;2023-05-29T08:03:58;5.23;;;2.40;;
9228;SDS011;4649;42.644;23.284;2023-05-29T08:06:35;2.40;;;2.30;;
9228;SDS011;4649;42.644;23.284;2023-05-29T08:09:25;4.77;;;2.60;;
9228;SDS011;4649;42.644;23.284;2023-05-29T08:12:02;2.90;;;2.70;;
9228;SDS011;4649;42.644;23.284;2023-05-29T08:14:32;2.70;;;2.50;;
9228;SDS011;4649;42.644;23.284;2023-05-29T08:17:13;4.43;;;3.27;;
9228;SDS011;4649;42.644;23.284;2023-05-29T08:20:20;4.57;;;2.40;;
9228;SDS011;4649;42.644;23.284;2023-05-29T08:23:00;2.97;;;2.77;;
9228;SDS011;4649;42.644;23.284;2023-05-29T08:25:41;4.20;;;2.30;;
9228;SDS011;4649;42.644;23.284;2023-05-29T08:28:20;3.10;;;2.60;;
9228;SDS011;4649;42.644;23.284;2023-05-29T08:30:52;3.97;;;2.43;;
9228;SDS011;4649;42.644;23.284;2023-05-29T08:33:41;2.50;;;2.40;;
9228;SDS011;4649;42.644;23.284;2023-05-29T08:36:16;2.60;;;2.40;;
9228;SDS011;4649;42.644;23.284;2023-05-29T08:38:47;3.60;;;2.50;;
9228;SDS011;4649;42.644;23.284;2023-05-29T08:41:28;6.33;;;2.73;;
9228;SDS011;4649;42.644;23.284;2023-05-29T08:44:22;2.70;;;1.80;;
9228;SDS011;4649;42.644;23.284;2023-05-29T08:46:57;3.07;;;2.30;;
9228;SDS011;4649;42.644;23.284;2023-05-29T08:49:32;2.30;;;2.10;;
9228;SDS011;4649;42.644;23.284;2023-05-29T08:52:17;4.23;;;2.30;;
9228;SDS011;4649;42.644;23.284;2023-05-29T08:55:10;2.30;;;2.13;;
9228;SDS011;4649;42.644;23.284;2023-05-29T09:03:51;5.13;;;2.10;;
9228;SDS011;4649;42.644;23.284;2023-05-29T09:06:24;1.93;;;1.83;;
9228;SDS011;4649;42.644;23.284;2023-05-29T09:09:11;2.10;;;2.00;;
9228;SDS011;4649;42.644;23.284;2023-05-29T09:11:51;2.00;;;1.90;;
9228;SDS011;4649;42.644;23.284;2023-05-29T09:14:43;4.03;;;3.70;;
9228;SDS011;4649;42.644;23.284;2023-05-29T09:17:11;2.13;;;1.97;;
9228;SDS011;4649;42.644;23.284;2023-05-29T09:19:47;2.70;;;2.60;;
9228;SDS011;4649;42.644;23.284;2023-05-29T09:22:19;2.20;;;2.10;;
9228;SDS011;4649;42.644;23.284;2023-05-29T09:24:47;1.80;;;1.70;;
9228;SDS011;4649;42.644;23.284;2023-05-29T09:27:16;2.70;;;2.50;;
9228;SDS011;4649;42.644;23.284;2023-05-29T09:29:50;2.47;;;2.23;;
9228;SDS011;4649;42.644;23.284;2023-05-29T09:32:26;2.97;;;2.17;;
9228;SDS011;4649;42.644;23.284;2023-05-29T09:35:10;2.53;;;2.43;;
9228;SDS011;4649;42.644;23.284;2023-05-29T09:37:45;2.50;;;2.30;;
9228;SDS011;4649;42.644;23.284;2023-05-29T09:40:23;2.60;;;2.40;;
9228;SDS011;4649;42.644;23.284;2023-05-29T09:43:04;3.30;;;2.63;;
9228;SDS011;4649;42.644;23.284;2023-05-29T09:46:01;2.43;;;2.23;;
9228;SDS011;4649;42.644;23.284;2023-05-29T09:49:00;2.93;;;2.73;;
9228;SDS011;4649;42.644;23.284;2023-05-29T09:51:45;2.60;;;2.40;;
9228;SDS011;4649;42.644;23.284;2023-05-29T09:54:29;2.30;;;2.20;;
9228;SDS011;4649;42.644;23.284;2023-05-29T09:57:13;2.20;;;2.10;;
9228;SDS011;4649;42.644;23.284;2023-05-29T09:59:57;2.40;;;2.30;;
9228;SDS011;4649;42.644;23.284;2023-05-29T10:02:39;2.53;;;2.33;;
9228;SDS011;4649;42.644;23.284;2023-05-29T10:05:24;2.50;;;2.40;;
9228;SDS011;4649;42.644;23.284;2023-05-29T10:07:55;2.63;;;2.20;;
9228;SDS011;4649;42.644;23.284;2023-05-29T10:10:32;2.07;;;1.90;;
9228;SDS011;4649;42.644;23.284;2023-05-29T10:13:19;2.43;;;2.33;;
9228;SDS011;4649;42.644;23.284;2023-05-29T10:16:02;2.43;;;2.20;;
9228;SDS011;4649;42.644;23.284;2023-05-29T10:25:01;4.87;;;2.23;;
9228;SDS011;4649;42.644;23.284;2023-05-29T10:27:46;2.57;;;2.47;;
9228;SDS011;4649;42.644;23.284;2023-05-29T10:30:25;3.00;;;2.33;;
9228;SDS011;4649;42.644;23.284;2023-05-29T10:33:21;2.30;;;2.10;;
9228;SDS011;4649;42.644;23.284;2023-05-29T10:36:23;2.33;;;2.23;;
9228;SDS011;4649;42.644;23.284;2023-05-29T10:39:15;5.80;;;2.23;;
9228;SDS011;4649;42.644;23.284;2023-05-29T10:48:51;2.10;;;1.83;;
9228;SDS011;4649;42.644;23.284;2023-05-29T10:51:47;2.13;;;2.03;;
9228;SDS011;4649;42.644;23.284;2023-05-29T10:57:34;2.40;;;2.30;;
9228;SDS011;4649;42.644;23.284;2023-05-29T11:00:08;4.40;;;2.67;;
9228;SDS011;4649;42.644;23.284;2023-05-29T11:02:48;2.73;;;2.63;;
9228;SDS011;4649;42.644;23.284;2023-05-29T11:05:47;5.57;;;3.10;;
9228;SDS011;4649;42.644;23.284;2023-05-29T11:52:55;3.10;;;2.73;;
9228;SDS011;4649;42.644;23.284;2023-05-29T16:59:32;3.67;;;3.47;;
9228;SDS011;4649;42.644;23.284;2023-05-29T17:02:36;3.07;;;2.87;;
9228;SDS011;4649;42.644;23.284;2023-05-29T18:33:29;2.80;;;2.70;;
9228;SDS011;4649;42.644;23.284;2023-05-29T18:42:56;3.80;;;3.07;;
9228;SDS011;4649;42.644;23.284;2023-05-29T18:46:01;4.47;;;2.20;;
9228;SDS011;4649;42.644;23.284;2023-05-29T19:37:53;3.57;;;2.47;;
9228;SDS011;4649;42.644;23.284;2023-05-29T19:40:44;6.00;;;2.43;;
9228;SDS011;4649;42.644;23.284;2023-05-29T22:14:45;2.83;;;2.70;;
